Warning: Invalid argument supplied for foreach() in /server/czul.ca/includes/prompts.inc.php on line 9

Warning: Invalid argument supplied for foreach() in /server/czul.ca/includes/prompts.inc.php on line 9

Warning: Invalid argument supplied for foreach() in /server/czul.ca/includes/prompts.inc.php on line 9
CZUL - FIR virtuelle de Montréal

CYYZ

Lester B. Pearson International Airport

{{ICAO_CODE}} CYYZ
{{IATA_CODE}} YYZ
{{NAME}} Lester B. Pearson International Airport
{{LOCATION}} Toronto, Ontario, CA
{{ELEVATION}} 569 {{FEET}} / 173.4 {{METERS}}
{{LATITUDE}} 43.67720032
{{LONGITUDE}} -79.63059998
{{METAR}} CYYZ 240000Z 20011KT 180V240 15SM FEW025 BKN055 BKN075 14/09 A2982 RMK CF1SC7AC1 CF TR AC TR SLP100 DENSITY ALT 800FT
{{EXTRA_INFO}} {{DISPLAY_CHARTS_AND_CFS}}
{{DISPLAY_NOTAMS}}
{{RUNWAY}} {{LENGTH}} {{WIDTH}} {{SURFACE}} {{ELEVATION}}
05 11120 ft 200 ft ASP/CONC 564 ft
06L 9697 ft 200 ft ASP 529 ft
06R 9000 ft 200 ft ASP 525 ft
15L 11050 ft 200 ft ASP 557 ft
15R 9088 ft 200 ft ASP 551 ft
23 11120 ft 200 ft ASP/CONC 560 ft
24R 9697 ft 200 ft ASP 546 ft
24L 9000 ft 200 ft ASP 547 ft
33R 11050 ft 200 ft ASP 544 ft
33L 9088 ft 200 ft ASP 544 ft